Time;durP1;ratioP1;P1;durP2;ratioP2;P2;SDS_P1;SDS_P2;PMS_P1;PMS_P2;Temp;Humidity;BMP_temperature;BMP_pressure;BME280_temperature;BME280_humidity;BME280_pressure;Samples;Min_cycle;Max_cycle;Signal;HPM_P1;HPM_P2
2022/04/24 00:00:07;;;;;;;8.05;4.80;;;14.10;78.20;;;;;;5133888;27;20722;-66
2022/04/24 00:02:33;;;;;;;6.53;4.68;;;14.00;78.20;;;;;;5133768;27;20049;-67
2022/04/24 00:04:59;;;;;;;8.85;4.55;;;14.10;78.30;;;;;;5133101;27;20035;-66
2022/04/24 00:07:25;;;;;;;9.40;5.07;;;14.00;78.00;;;;;;5133837;27;20035;-66
2022/04/24 00:09:50;;;;;;;7.20;3.45;;;14.00;77.70;;;;;;5128744;27;20027;-67
2022/04/24 00:12:16;;;;;;;5.60;3.88;;;14.00;77.60;;;;;;5132760;27;20126;-67
2022/04/24 00:14:44;;;;;;;7.70;5.05;;;13.90;77.50;;;;;;5133371;27;20359;-66
2022/04/24 00:17:10;;;;;;;12.70;5.15;;;13.90;77.20;;;;;;5133499;27;20038;-67
2022/04/24 00:19:36;;;;;;;10.85;4.90;;;13.90;77.30;;;;;;5132951;27;20023;-67
2022/04/24 00:22:01;;;;;;;7.07;4.68;;;13.90;77.50;;;;;;5133191;27;20045;-66
2022/04/24 00:24:27;;;;;;;8.32;4.60;;;13.90;77.80;;;;;;5133242;27;20037;-66
2022/04/24 00:26:54;;;;;;;10.05;5.47;;;13.80;77.80;;;;;;5132185;27;20119;-66
2022/04/24 00:29:22;;;;;;;5.85;4.15;;;13.80;77.60;;;;;;5133193;27;20042;-66
2022/04/24 00:31:48;;;;;;;7.78;5.03;;;13.70;77.50;;;;;;5133000;27;20039;-66
2022/04/24 00:34:14;;;;;;;10.63;4.57;;;13.70;77.40;;;;;;5132506;27;20016;-66
2022/04/24 00:36:39;;;;;;;9.15;4.85;;;13.70;77.30;;;;;;5133233;27;20023;-66
2022/04/24 00:39:05;;;;;;;9.27;4.50;;;13.70;77.20;;;;;;5133293;27;20027;-66
2022/04/24 00:41:31;;;;;;;9.93;5.30;;;13.70;77.00;;;;;;5127727;27;20028;-66
2022/04/24 00:43:57;;;;;;;8.23;4.85;;;13.70;77.00;;;;;;5124230;27;20366;-67
2022/04/24 00:46:39;;;;;;;9.02;5.07;;;13.70;77.10;;;;;;5132835;27;20075;-67
2022/04/24 00:49:05;;;;;;;7.20;4.75;;;13.70;77.10;;;;;;5131245;27;20110;-66
2022/04/24 00:51:30;;;;;;;9.25;5.00;;;13.60;77.50;;;;;;5132269;27;20061;-66
2022/04/24 00:53:56;;;;;;;7.72;5.00;;;13.60;78.20;;;;;;5122772;27;20027;-66
2022/04/24 00:56:24;;;;;;;8.10;4.97;;;13.50;79.10;;;;;;5128518;27;20034;-67
2022/04/24 00:58:50;;;;;;;8.35;5.38;;;13.50;79.30;;;;;;5132720;27;20069;-66
2022/04/24 01:01:18;;;;;;;8.93;5.88;;;13.50;79.30;;;;;;5118529;27;20032;-66
2022/04/24 01:03:44;;;;;;;7.70;4.78;;;13.40;79.10;;;;;;5121911;27;20036;-66
2022/04/24 01:06:10;;;;;;;14.02;5.50;;;13.40;78.90;;;;;;5129573;27;20035;-67
2022/04/24 01:08:36;;;;;;;9.35;5.78;;;13.30;78.80;;;;;;5129275;27;20114;-66
2022/04/24 01:11:01;;;;;;;8.52;5.10;;;13.30;78.50;;;;;;5129917;27;20023;-66
2022/04/24 01:13:27;;;;;;;7.25;5.05;;;13.30;78.40;;;;;;5121751;27;20046;-67
2022/04/24 01:15:57;;;;;;;7.63;4.63;;;13.30;78.10;;;;;;5129624;27;20394;-66
2022/04/24 01:18:25;;;;;;;8.18;4.70;;;13.20;78.20;;;;;;5129669;27;20043;-67
2022/04/24 01:20:50;;;;;;;10.75;4.70;;;13.20;79.20;;;;;;5124544;27;20034;-67
2022/04/24 01:23:16;;;;;;;9.02;4.55;;;13.20;79.80;;;;;;5131301;27;20027;-66
2022/04/24 01:25:42;;;;;;;9.27;5.35;;;13.10;79.90;;;;;;5132224;27;20035;-67
2022/04/24 01:28:08;;;;;;;9.25;5.10;;;13.10;79.60;;;;;;5127413;27;20031;-66
2022/04/24 01:30:35;;;;;;;8.48;4.93;;;13.10;80.00;;;;;;5131489;27;20029;-66
2022/04/24 01:33:01;;;;;;;9.55;4.75;;;13.10;79.70;;;;;;5120275;27;20051;-66
2022/04/24 01:35:26;;;;;;;7.72;4.95;;;13.00;79.70;;;;;;5130313;27;20031;-67
2022/04/24 01:37:55;;;;;;;9.23;4.88;;;13.00;79.80;;;;;;5130746;27;20535;-66
2022/04/24 01:40:21;;;;;;;10.40;5.47;;;13.00;80.00;;;;;;5122951;27;20031;-66
2022/04/24 01:42:46;;;;;;;8.23;4.95;;;12.90;80.60;;;;;;5122404;27;20497;-66
2022/04/24 01:45:12;;;;;;;8.68;5.25;;;12.90;81.00;;;;;;5115398;27;20027;-66
2022/04/24 01:47:38;;;;;;;8.95;4.88;;;12.90;81.40;;;;;;5120299;27;20051;-66
2022/04/24 01:50:05;;;;;;;8.10;5.32;;;12.90;81.70;;;;;;5124967;28;20389;-67
2022/04/24 01:52:30;;;;;;;8.65;4.93;;;12.80;81.80;;;;;;5119266;28;20119;-66
2022/04/24 01:54:56;;;;;;;9.45;4.93;;;12.80;82.00;;;;;;5132608;27;20110;-66
2022/04/24 01:57:22;;;;;;;8.30;4.75;;;12.70;82.10;;;;;;5132054;27;20911;-66
2022/04/24 01:59:47;;;;;;;8.88;5.20;;;12.70;82.20;;;;;;5136698;27;20027;-66
2022/04/24 02:02:13;;;;;;;8.38;4.57;;;12.60;82.20;;;;;;5125685;27;20028;-66
2022/04/24 02:04:38;;;;;;;7.82;4.53;;;12.60;82.30;;;;;;5130379;27;20046;-66
2022/04/24 02:07:06;;;;;;;8.77;4.82;;;12.60;82.60;;;;;;5133772;27;20142;-66
2022/04/24 02:09:33;;;;;;;10.25;5.28;;;12.60;82.90;;;;;;5138433;27;20487;-66
2022/04/24 02:11:59;;;;;;;10.68;5.22;;;12.60;82.70;;;;;;5137698;27;20490;-66
2022/04/24 02:14:25;;;;;;;9.73;5.20;;;12.60;82.90;;;;;;5128960;27;20039;-66
2022/04/24 02:16:51;;;;;;;7.90;4.47;;;12.50;82.90;;;;;;5138364;27;20050;-66
2022/04/24 02:19:17;;;;;;;8.27;4.75;;;12.50;83.00;;;;;;5138002;27;20118;-66
2022/04/24 02:21:42;;;;;;;7.93;4.60;;;12.40;83.20;;;;;;5137932;27;20066;-66
2022/04/24 02:24:08;;;;;;;9.77;5.10;;;12.40;83.20;;;;;;5138651;27;20035;-66
2022/04/24 02:26:34;;;;;;;8.98;5.00;;;12.40;83.30;;;;;;5137523;27;20035;-66
2022/04/24 02:28:59;;;;;;;8.48;5.05;;;12.40;83.30;;;;;;5125321;27;20697;-66
2022/04/24 02:31:25;;;;;;;7.30;4.38;;;12.30;83.50;;;;;;5125634;27;20035;-66
2022/04/24 02:33:51;;;;;;;7.50;4.78;;;12.30;83.60;;;;;;5137855;27;20492;-66
2022/04/24 02:36:17;;;;;;;9.48;4.65;;;12.30;83.60;;;;;;5137881;27;20092;-66
2022/04/24 02:38:43;;;;;;;8.65;4.72;;;12.30;83.80;;;;;;5138539;27;20023;-66
2022/04/24 02:41:09;;;;;;;6.63;4.10;;;12.20;83.90;;;;;;5137485;27;20069;-66
2022/04/24 02:43:34;;;;;;;9.00;4.60;;;12.20;84.00;;;;;;5138481;27;20050;-66
2022/04/24 02:46:00;;;;;;;11.95;4.28;;;12.20;83.90;;;;;;5138224;27;20042;-66
2022/04/24 02:48:27;;;;;;;8.07;4.72;;;12.20;84.10;;;;;;5126788;27;20019;-66
2022/04/24 02:50:54;;;;;;;6.93;4.55;;;12.20;84.30;;;;;;5138173;27;20023;-66
2022/04/24 02:53:19;;;;;;;6.22;4.38;;;12.20;84.20;;;;;;5137681;27;20627;-66
2022/04/24 02:55:45;;;;;;;8.63;4.63;;;12.10;84.30;;;;;;5137581;27;20038;-66
2022/04/24 02:58:11;;;;;;;8.23;4.15;;;12.10;84.40;;;;;;5138274;27;20067;-66
2022/04/24 03:00:42;;;;;;;9.40;4.55;;;12.10;84.60;;;;;;5133772;27;20031;-66
2022/04/24 03:03:08;;;;;;;6.82;4.07;;;12.00;84.50;;;;;;5138394;27;20043;-66
2022/04/24 03:05:34;;;;;;;7.65;4.32;;;12.00;84.60;;;;;;5135343;27;20077;-66
2022/04/24 03:07:59;;;;;;;11.00;5.80;;;12.00;84.70;;;;;;5134407;27;20039;-66
2022/04/24 03:10:26;;;;;;;8.60;3.83;;;12.00;84.90;;;;;;5134638;27;20069;-66
2022/04/24 03:12:51;;;;;;;5.88;4.20;;;11.90;85.00;;;;;;5134948;27;20389;-66
2022/04/24 03:15:17;;;;;;;9.00;5.38;;;11.90;85.20;;;;;;5134070;27;20117;-66
2022/04/24 03:17:43;;;;;;;12.20;5.18;;;11.90;85.20;;;;;;5134661;27;20034;-66
2022/04/24 03:20:11;;;;;;;9.18;4.90;;;11.90;85.10;;;;;;5134102;27;20031;-66
2022/04/24 03:22:37;;;;;;;8.15;4.88;;;11.90;85.10;;;;;;5134043;27;20030;-66
2022/04/24 03:25:08;;;;;;;8.18;4.65;;;11.80;85.20;;;;;;5134407;27;20083;-66
2022/04/24 03:27:33;;;;;;;9.75;4.85;;;11.80;85.20;;;;;;5134140;27;20042;-66
2022/04/24 03:30:00;;;;;;;8.90;4.82;;;11.70;85.20;;;;;;5116789;27;20028;-66
2022/04/24 03:32:29;;;;;;;15.32;4.57;;;11.70;85.30;;;;;;5133947;27;20039;-66
2022/04/24 03:34:54;;;;;;;7.72;4.72;;;11.70;85.30;;;;;;5134116;27;20072;-66
2022/04/24 03:37:20;;;;;;;8.35;4.50;;;11.70;85.40;;;;;;5124550;27;20027;-66
2022/04/24 03:39:46;;;;;;;12.05;4.53;;;11.70;85.30;;;;;;5130496;27;20397;-66
2022/04/24 03:42:12;;;;;;;13.82;4.53;;;11.70;85.30;;;;;;5134419;27;20031;-66
2022/04/24 03:44:37;;;;;;;6.18;3.55;;;11.70;85.50;;;;;;5133108;27;20360;-66
2022/04/24 03:47:03;;;;;;;11.82;5.00;;;11.60;85.70;;;;;;5126889;27;20065;-66
2022/04/24 03:49:29;;;;;;;10.90;4.55;;;11.60;85.70;;;;;;5131204;27;20027;-66
2022/04/24 03:51:55;;;;;;;10.65;4.80;;;11.60;85.90;;;;;;5133583;27;20043;-66
2022/04/24 03:54:21;;;;;;;8.82;4.22;;;11.50;85.80;;;;;;5133470;27;20104;-66
2022/04/24 03:56:47;;;;;;;6.68;4.50;;;11.50;85.90;;;;;;5133438;27;20038;-66
2022/04/24 03:59:12;;;;;;;8.13;4.35;;;11.50;86.00;;;;;;5130793;27;20035;-66
2022/04/24 04:01:39;;;;;;;11.90;5.13;;;11.50;86.10;;;;;;5133968;27;20031;-66
2022/04/24 04:04:04;;;;;;;10.07;6.10;;;11.50;86.00;;;;;;5120083;27;20382;-66
2022/04/24 04:06:30;;;;;;;10.13;4.75;;;11.50;86.20;;;;;;5133952;27;20023;-66
2022/04/24 04:08:56;;;;;;;7.38;4.68;;;11.50;86.20;;;;;;5133682;27;20023;-66
2022/04/24 04:11:22;;;;;;;8.88;4.68;;;11.40;86.00;;;;;;5132685;27;20547;-66
2022/04/24 04:13:47;;;;;;;7.95;4.55;;;11.40;85.80;;;;;;5133595;27;20514;-66
2022/04/24 04:16:13;;;;;;;9.70;5.38;;;11.40;85.90;;;;;;5133276;27;20024;-66
2022/04/24 04:18:39;;;;;;;12.93;6.43;;;11.50;86.00;;;;;;5118665;27;20031;-66
2022/04/24 04:21:04;;;;;;;11.65;5.35;;;11.50;85.90;;;;;;5133124;27;20847;-66
2022/04/24 04:23:33;;;;;;;8.68;4.38;;;11.50;85.90;;;;;;5133600;27;20168;-66
2022/04/24 04:25:58;;;;;;;10.05;5.55;;;11.50;85.90;;;;;;5132506;27;20113;-66
2022/04/24 04:28:27;;;;;;;14.32;6.50;;;11.50;86.00;;;;;;5128492;27;20120;-66
2022/04/24 04:30:56;;;;;;;13.38;7.10;;;11.50;86.00;;;;;;5133361;27;20027;-66
2022/04/24 04:33:21;;;;;;;11.73;5.68;;;11.50;86.00;;;;;;5115138;27;20023;-66
2022/04/24 04:35:47;;;;;;;13.00;6.22;;;11.50;86.10;;;;;;5123227;27;20027;-66
2022/04/24 04:38:14;;;;;;;12.32;7.13;;;11.50;86.10;;;;;;5132730;27;20075;-66
2022/04/24 04:40:40;;;;;;;13.32;6.35;;;11.50;86.30;;;;;;5132665;27;20031;-66
2022/04/24 04:43:06;;;;;;;12.40;5.80;;;11.50;86.50;;;;;;5132782;27;20023;-66
2022/04/24 04:45:32;;;;;;;11.68;6.20;;;11.50;86.60;;;;;;5133033;27;20112;-66
2022/04/24 04:47:58;;;;;;;13.05;6.18;;;11.50;86.70;;;;;;5122083;27;20493;-66
2022/04/24 04:50:24;;;;;;;13.85;6.38;;;11.50;86.80;;;;;;5132774;27;20535;-66
2022/04/24 04:52:49;;;;;;;13.38;6.10;;;11.40;86.90;;;;;;5132811;27;20039;-66
2022/04/24 04:55:15;;;;;;;11.88;6.22;;;11.40;87.10;;;;;;5132141;27;20054;-66
2022/04/24 04:57:41;;;;;;;12.32;6.13;;;11.40;87.30;;;;;;5119813;27;20023;-66
2022/04/24 05:00:08;;;;;;;16.60;6.35;;;11.40;87.50;;;;;;5131592;27;20494;-66
2022/04/24 05:02:38;;;;;;;10.50;5.88;;;11.40;87.70;;;;;;5132652;27;20073;-66
2022/04/24 05:05:08;;;;;;;13.05;6.10;;;11.30;87.80;;;;;;5132443;27;20019;-66
2022/04/24 05:07:35;;;;;;;16.23;6.28;;;11.30;87.90;;;;;;5131959;27;20030;-66
2022/04/24 05:10:01;;;;;;;12.70;5.95;;;11.30;88.00;;;;;;5132501;27;20059;-66
2022/04/24 05:12:30;;;;;;;15.10;6.40;;;11.30;88.10;;;;;;5132433;27;20080;-66
2022/04/24 05:15:06;;;;;;;10.55;5.35;;;11.30;88.20;;;;;;5131762;27;20475;-66
2022/04/24 05:17:34;;;;;;;9.52;5.47;;;11.30;88.20;;;;;;5132553;27;20027;-66
2022/04/24 05:20:01;;;;;;;10.48;6.18;;;11.30;88.20;;;;;;5119632;27;20058;-66
2022/04/24 05:22:26;;;;;;;9.75;5.68;;;11.30;88.30;;;;;;5131675;27;20027;-66
2022/04/24 05:24:52;;;;;;;10.95;5.50;;;11.30;88.40;;;;;;5132112;27;20076;-67
2022/04/24 05:27:19;;;;;;;10.80;5.35;;;11.30;89.00;;;;;;5120649;27;20041;-66
2022/04/24 05:29:45;;;;;;;8.63;4.57;;;11.30;88.60;;;;;;5123905;27;20035;-66
2022/04/24 05:32:11;;;;;;;10.68;5.85;;;11.30;88.60;;;;;;5132303;27;20131;-66
2022/04/24 05:34:37;;;;;;;7.88;4.68;;;11.30;89.30;;;;;;5132094;27;20102;-67
2022/04/24 05:37:03;;;;;;;10.43;5.28;;;11.20;88.70;;;;;;5131479;27;20474;-66
2022/04/24 05:39:29;;;;;;;13.20;5.20;;;11.20;88.80;;;;;;5131471;27;20557;-67
2022/04/24 05:41:55;;;;;;;9.27;4.25;;;11.20;88.70;;;;;;5132210;27;20118;-66
2022/04/24 05:44:20;;;;;;;8.30;4.32;;;11.20;88.80;;;;;;5130575;27;20023;-66
2022/04/24 05:46:46;;;;;;;7.47;4.25;;;11.20;88.90;;;;;;5128868;27;20456;-66
2022/04/24 05:49:12;;;;;;;9.05;4.63;;;11.20;88.80;;;;;;5129864;27;20117;-67
2022/04/24 05:51:37;;;;;;;8.15;4.03;;;11.20;89.50;;;;;;5131027;27;20031;-65
2022/04/24 05:54:03;;;;;;;11.23;3.97;;;11.20;88.90;;;;;;5130902;28;20110;-66
2022/04/24 05:56:29;;;;;;;9.07;4.05;;;11.20;89.00;;;;;;5129542;28;20031;-67
2022/04/24 05:58:54;;;;;;;6.95;3.60;;;11.20;89.10;;;;;;5130887;28;20023;-67
2022/04/24 06:01:20;;;;;;;9.05;3.80;;;11.20;89.00;;;;;;5130778;28;20030;-67
2022/04/24 06:03:47;;;;;;;9.25;3.55;;;11.20;89.10;;;;;;5129629;28;20434;-67
2022/04/24 06:06:13;;;;;;;9.35;3.67;;;11.20;89.10;;;;;;5130333;28;20031;-68
2022/04/24 06:08:39;;;;;;;4.18;2.78;;;11.20;89.10;;;;;;5130641;28;20035;-67
2022/04/24 06:11:04;;;;;;;7.28;3.03;;;11.20;89.30;;;;;;5129431;28;20023;-66
2022/04/24 06:13:30;;;;;;;6.45;2.72;;;11.20;89.30;;;;;;5130156;28;20031;-68
2022/04/24 06:15:57;;;;;;;5.05;2.53;;;11.20;89.40;;;;;;5130385;28;20027;-69
2022/04/24 06:18:32;;;;;;;6.60;2.55;;;11.20;89.40;;;;;;5128197;28;20114;-70
2022/04/24 06:20:58;;;;;;;7.50;3.17;;;11.20;89.40;;;;;;5130866;28;20020;-69
2022/04/24 06:23:28;;;;;;;4.53;1.95;;;11.20;89.50;;;;;;5130173;28;20035;-65
2022/04/24 06:25:55;;;;;;;5.32;3.13;;;11.30;89.60;;;;;;5129476;28;20031;-69
2022/04/24 06:28:21;;;;;;;10.27;2.38;;;11.30;89.70;;;;;;5130237;28;20035;-70
2022/04/24 06:30:47;;;;;;;7.43;2.20;;;11.30;89.70;;;;;;5127194;28;20092;-70
2022/04/24 06:33:14;;;;;;;5.45;2.92;;;11.30;89.70;;;;;;5128067;28;20045;-70
2022/04/24 06:35:41;;;;;;;8.43;2.05;;;11.30;89.60;;;;;;5128401;28;20537;-70
2022/04/24 06:38:07;;;;;;;6.40;2.60;;;11.30;89.60;;;;;;5128351;28;20038;-70
2022/04/24 06:40:33;;;;;;;5.30;2.38;;;11.30;89.60;;;;;;5129510;27;20466;-68
2022/04/24 06:43:04;;;;;;;8.27;2.72;;;11.40;89.80;;;;;;5132617;27;20513;-69
2022/04/24 06:45:41;;;;;;;5.60;2.95;;;11.40;89.60;;;;;;5130800;27;20095;-70
2022/04/24 06:48:16;;;;;;;9.00;2.70;;;11.40;89.50;;;;;;5128271;27;20043;-70
2022/04/24 06:50:46;;;;;;;4.13;1.65;;;11.50;89.70;;;;;;5130234;27;20058;-70
2022/04/24 06:53:20;;;;;;;7.75;2.55;;;11.50;89.80;;;;;;5129312;27;20390;-70
2022/04/24 06:55:48;;;;;;;5.32;2.63;;;11.50;89.60;;;;;;5131716;27;20073;-69
2022/04/24 06:58:16;;;;;;;6.75;3.40;;;11.50;89.60;;;;;;5112857;27;20027;-69
2022/04/24 07:00:43;;;;;;;5.00;2.70;;;11.50;89.40;;;;;;5130136;27;20031;-69
2022/04/24 07:03:10;;;;;;;7.32;2.70;;;11.60;89.10;;;;;;5131189;27;20081;-68
2022/04/24 07:05:36;;;;;;;4.78;2.47;;;11.60;89.20;;;;;;5131832;27;20087;-68
2022/04/24 07:08:02;;;;;;;7.47;3.35;;;11.60;89.50;;;;;;5130269;27;20836;-67
2022/04/24 07:10:27;;;;;;;7.88;3.10;;;11.70;89.50;;;;;;5121811;27;20061;-67
2022/04/24 07:12:54;;;;;;;9.05;2.40;;;11.70;89.40;;;;;;5126688;27;20031;-68
2022/04/24 07:15:22;;;;;;;7.22;2.92;;;11.70;89.50;;;;;;5110309;27;20386;-67
2022/04/24 07:17:49;;;;;;;6.40;2.65;;;11.70;89.00;;;;;;5131014;27;20057;-67
2022/04/24 07:20:17;;;;;;;10.70;3.38;;;11.80;88.80;;;;;;5130135;27;20027;-65
2022/04/24 07:22:49;;;;;;;3.22;2.28;;;11.80;88.80;;;;;;5130240;27;20083;-67
2022/04/24 07:25:19;;;;;;;5.32;3.03;;;11.80;88.70;;;;;;5128133;27;20027;-63
2022/04/24 07:27:45;;;;;;;7.10;2.53;;;11.90;89.20;;;;;;5129349;27;20655;-65
2022/04/24 07:30:15;;;;;;;4.88;2.63;;;11.90;89.40;;;;;;5130699;27;20029;-64
2022/04/24 07:33:02;;;;;;;4.97;2.60;;;11.90;89.10;;;;;;5130014;27;20039;-66
2022/04/24 07:35:38;;;;;;;5.20;2.90;;;11.90;88.70;;;;;;5129273;27;20107;-66
2022/04/24 07:38:05;;;;;;;10.07;3.20;;;12.00;89.10;;;;;;5131002;27;20117;-66
2022/04/24 07:40:32;;;;;;;6.57;2.70;;;12.00;88.30;;;;;;5130981;27;20518;-66
2022/04/24 07:43:02;;;;;;;6.30;2.53;;;12.00;88.70;;;;;;5129212;27;20535;-64
2022/04/24 07:45:37;;;;;;;9.35;3.10;;;12.10;88.60;;;;;;5117981;27;20079;-64
2022/04/24 07:48:05;;;;;;;6.70;2.72;;;12.10;88.40;;;;;;5127714;27;20043;-64
2022/04/24 07:50:34;;;;;;;8.43;3.03;;;12.20;88.70;;;;;;5129454;27;20548;-64
2022/04/24 07:53:00;;;;;;;7.43;2.55;;;12.20;88.40;;;;;;5127987;27;20046;-64
2022/04/24 07:55:29;;;;;;;7.47;3.13;;;12.30;88.20;;;;;;5129160;27;20031;-64
2022/04/24 07:57:58;;;;;;;8.55;3.22;;;12.30;88.30;;;;;;5129952;27;20031;-65
2022/04/24 08:00:27;;;;;;;7.15;3.15;;;12.40;88.60;;;;;;5128781;27;20043;-66
2022/04/24 08:03:03;;;;;;;12.13;3.13;;;12.40;88.70;;;;;;5130370;27;20023;-65
2022/04/24 08:05:32;;;;;;;5.20;2.92;;;12.40;88.80;;;;;;5124145;27;20027;-66
2022/04/24 08:08:00;;;;;;;5.88;2.80;;;12.40;88.80;;;;;;5129860;27;20080;-66
2022/04/24 08:10:31;;;;;;;6.53;2.97;;;12.50;88.90;;;;;;5128541;27;20094;-66
2022/04/24 08:12:57;;;;;;;7.68;2.95;;;12.50;88.80;;;;;;5129655;27;20050;-67
2022/04/24 08:15:23;;;;;;;6.07;2.67;;;12.50;88.50;;;;;;5129907;27;20031;-66
2022/04/24 08:17:49;;;;;;;5.93;2.38;;;12.50;88.30;;;;;;5127385;27;20463;-65
2022/04/24 08:20:16;;;;;;;9.15;2.60;;;12.60;88.20;;;;;;5128396;27;20027;-64
2022/04/24 08:22:49;;;;;;;6.03;2.63;;;12.60;88.00;;;;;;5129068;27;20039;-65
2022/04/24 08:25:20;;;;;;;4.95;2.88;;;12.60;87.30;;;;;;5125605;27;20113;-67
2022/04/24 08:27:47;;;;;;;6.53;2.60;;;12.70;87.60;;;;;;5122774;27;20092;-67
2022/04/24 08:30:14;;;;;;;6.13;3.00;;;12.70;87.40;;;;;;5127845;27;20031;-67
2022/04/24 08:32:41;;;;;;;7.22;2.58;;;12.80;86.90;;;;;;5126486;27;20047;-65
2022/04/24 08:35:09;;;;;;;6.20;3.25;;;12.80;87.10;;;;;;5126461;27;20023;-66
2022/04/24 08:37:36;;;;;;;3.85;2.40;;;12.80;86.70;;;;;;5128495;27;20033;-64
2022/04/24 08:40:05;;;;;;;4.20;2.13;;;12.90;87.30;;;;;;5127494;27;20375;-64
2022/04/24 08:42:33;;;;;;;12.15;2.10;;;13.00;87.60;;;;;;5127018;27;20426;-65
2022/04/24 08:44:59;;;;;;;4.32;2.42;;;12.90;88.30;;;;;;5128158;27;20050;-65
2022/04/24 08:47:26;;;;;;;10.88;2.67;;;12.90;88.40;;;;;;5126356;27;20058;-65
2022/04/24 08:49:57;;;;;;;7.00;2.80;;;13.00;88.20;;;;;;5129066;27;20050;-65
2022/04/24 08:52:24;;;;;;;8.90;2.30;;;13.00;87.80;;;;;;5126439;27;20154;-65
2022/04/24 08:54:51;;;;;;;10.35;2.15;;;13.10;88.20;;;;;;5124551;27;20034;-67
2022/04/24 08:57:17;;;;;;;5.88;2.92;;;13.00;87.70;;;;;;5126845;27;20067;-67
2022/04/24 08:59:44;;;;;;;5.03;2.25;;;13.10;87.40;;;;;;5128586;27;20027;-67
2022/04/24 09:02:10;;;;;;;3.20;1.88;;;13.10;87.40;;;;;;5129564;27;20145;-67
2022/04/24 09:04:40;;;;;;;5.15;2.20;;;13.20;87.70;;;;;;5130215;27;20031;-66
2022/04/24 09:07:09;;;;;;;4.75;2.17;;;13.20;87.50;;;;;;5125373;27;20118;-69
2022/04/24 09:09:46;;;;;;;5.47;2.30;;;13.20;87.10;;;;;;5126799;27;20126;-64
2022/04/24 09:12:14;;;;;;;7.70;2.10;;;13.20;87.30;;;;;;5127314;27;20549;-69
2022/04/24 09:14:41;;;;;;;4.38;1.90;;;13.30;86.80;;;;;;5129648;27;20106;-65
2022/04/24 09:17:18;;;;;;;2.47;1.98;;;13.30;86.40;;;;;;5129616;27;20088;-66
2022/04/24 09:19:44;;;;;;;4.68;2.40;;;13.40;87.20;;;;;;5129866;27;20034;-66
2022/04/24 09:22:10;;;;;;;10.68;2.35;;;13.40;87.40;;;;;;5119504;27;20027;-67
2022/04/24 09:24:49;;;;;;;2.55;1.83;;;13.40;87.10;;;;;;5120271;27;20031;-67
2022/04/24 09:27:25;;;;;;;4.72;2.05;;;13.50;87.40;;;;;;5125417;27;20535;-68
2022/04/24 09:29:54;;;;;;;5.95;2.47;;;13.50;87.20;;;;;;5130164;27;20083;-67
2022/04/24 09:32:26;;;;;;;5.38;2.58;;;13.60;88.00;;;;;;5130080;27;20055;-67
2022/04/24 09:34:53;;;;;;;6.50;2.38;;;13.60;87.50;;;;;;5126330;27;20038;-68
2022/04/24 09:37:19;;;;;;;4.03;2.13;;;13.60;87.30;;;;;;5129472;27;20053;-67
2022/04/24 09:39:52;;;;;;;4.75;2.58;;;13.70;87.50;;;;;;5128998;27;20075;-67
2022/04/24 09:42:20;;;;;;;5.05;1.98;;;13.70;86.80;;;;;;5129144;27;20118;-67
2022/04/24 09:44:50;;;;;;;6.80;2.58;;;13.70;87.20;;;;;;5129691;27;20042;-67
2022/04/24 09:47:18;;;;;;;4.80;2.13;;;13.80;86.10;;;;;;5127381;27;20104;-67
2022/04/24 09:49:46;;;;;;;4.72;1.85;;;13.80;87.00;;;;;;5128772;27;20083;-67
2022/04/24 09:52:15;;;;;;;6.30;2.92;;;13.90;87.50;;;;;;5129449;27;20070;-67
2022/04/24 09:54:45;;;;;;;8.27;2.60;;;13.90;86.80;;;;;;5129281;28;20024;-68
2022/04/24 09:57:13;;;;;;;3.78;2.42;;;13.90;86.80;;;;;;5129054;28;20045;-67
2022/04/24 09:59:43;;;;;;;5.65;1.83;;;13.90;86.00;;;;;;5129765;28;20069;-67
2022/04/24 10:02:11;;;;;;;4.18;1.90;;;13.90;86.30;;;;;;5129667;28;20471;-67
2022/04/24 10:04:38;;;;;;;3.42;1.60;;;14.00;86.00;;;;;;5128556;28;20466;-67
2022/04/24 10:07:13;;;;;;;3.88;2.30;;;14.00;86.80;;;;;;5128284;28;20031;-67
2022/04/24 10:09:50;;;;;;;3.00;1.98;;;14.00;86.00;;;;;;5126976;28;20528;-66
2022/04/24 10:12:18;;;;;;;6.18;1.77;;;14.10;86.60;;;;;;5124746;28;20494;-67
2022/04/24 10:15:03;;;;;;;5.32;2.53;;;14.10;86.00;;;;;;5132306;27;20415;-66
2022/04/24 10:17:50;;;;;;;6.25;2.25;;;14.10;86.00;;;;;;5133356;27;20069;-66
2022/04/24 10:20:19;;;;;;;6.50;2.42;;;14.10;85.70;;;;;;5121370;27;20462;-66
2022/04/24 10:22:49;;;;;;;3.65;2.33;;;14.20;85.70;;;;;;5134239;27;20514;-66
2022/04/24 10:25:16;;;;;;;7.70;2.70;;;14.20;86.00;;;;;;5120789;27;20035;-66
2022/04/24 10:27:43;;;;;;;4.55;1.60;;;14.20;85.70;;;;;;5134345;27;20042;-66
2022/04/24 10:30:19;;;;;;;7.70;2.20;;;14.30;86.00;;;;;;5133978;27;20188;-66
2022/04/24 10:32:47;;;;;;;4.55;1.60;;;14.30;86.30;;;;;;5133647;27;20065;-66
2022/04/24 10:35:19;;;;;;;5.63;2.20;;;14.40;86.10;;;;;;5133611;27;20374;-66
2022/04/24 10:37:47;;;;;;;5.68;3.10;;;14.40;85.50;;;;;;5132303;27;20436;-66
2022/04/24 10:40:15;;;;;;;7.53;2.28;;;14.40;85.40;;;;;;5121499;27;20076;-66
2022/04/24 10:42:43;;;;;;;5.78;2.80;;;14.40;85.60;;;;;;5132165;27;20474;-68
2022/04/24 10:45:14;;;;;;;4.15;1.98;;;14.50;85.60;;;;;;5130206;27;20031;-66
2022/04/24 10:47:50;;;;;;;5.78;2.30;;;14.50;85.90;;;;;;5131712;27;20043;-66
2022/04/24 10:50:20;;;;;;;5.82;2.30;;;14.50;85.50;;;;;;5129486;27;20080;-66
2022/04/24 10:52:48;;;;;;;5.60;2.83;;;14.50;85.40;;;;;;5130734;27;20633;-66
2022/04/24 10:55:19;;;;;;;1.50;1.35;;;14.50;85.20;;;;;;5131210;27;20039;-66
2022/04/24 10:57:46;;;;;;;9.65;2.80;;;14.60;85.80;;;;;;5130392;27;20126;-65
2022/04/24 11:00:22;;;;;;;10.45;2.22;;;14.60;85.20;;;;;;5127683;27;20482;-67
2022/04/24 11:02:49;;;;;;;6.25;2.03;;;14.60;85.20;;;;;;5128522;27;20039;-67
2022/04/24 11:05:22;;;;;;;4.05;1.98;;;14.70;85.40;;;;;;5130997;27;20030;-67
2022/04/24 11:07:48;;;;;;;9.18;2.42;;;14.60;85.40;;;;;;5128536;27;20106;-66
2022/04/24 11:10:20;;;;;;;3.55;2.13;;;14.70;85.50;;;;;;5132377;27;20028;-66
2022/04/24 11:12:48;;;;;;;4.80;2.65;;;14.70;85.40;;;;;;5131393;27;20034;-67
2022/04/24 11:15:15;;;;;;;5.63;3.03;;;14.80;85.60;;;;;;5131398;27;20039;-72
2022/04/24 11:17:41;;;;;;;7.30;3.28;;;14.70;85.20;;;;;;5130315;27;20077;-66
2022/04/24 11:20:13;;;;;;;9.20;2.80;;;14.80;85.50;;;;;;5130238;27;20043;-66
2022/04/24 11:22:53;;;;;;;5.40;2.40;;;14.80;85.40;;;;;;5128845;27;20024;-66
2022/04/24 11:25:21;;;;;;;12.05;3.53;;;14.80;85.30;;;;;;5129245;27;20047;-66
2022/04/24 11:27:51;;;;;;;5.80;2.30;;;14.90;85.50;;;;;;5126477;27;20041;-66
2022/04/24 11:30:19;;;;;;;9.98;2.95;;;14.80;85.40;;;;;;5128820;27;20119;-66
2022/04/24 11:32:59;;;;;;;8.23;3.00;;;14.90;84.90;;;;;;5129234;27;20039;-67
2022/04/24 11:35:28;;;;;;;8.32;2.70;;;14.90;84.80;;;;;;5128249;27;20453;-66
2022/04/24 11:37:55;;;;;;;6.50;2.67;;;14.90;84.80;;;;;;5131493;27;20053;-66
2022/04/24 11:40:22;;;;;;;3.63;2.22;;;14.90;84.70;;;;;;5131905;27;20033;-66
2022/04/24 11:42:48;;;;;;;9.35;2.45;;;14.90;84.50;;;;;;5130733;27;20080;-68
2022/04/24 11:50:52;;;;;;;4.78;2.28;;;15.00;84.20;;;;;;5129974;27;20092;-68
2022/04/24 11:53:20;;;;;;;16.03;1.87;;;15.00;83.80;;;;;;5126891;27;20043;-68
2022/04/24 11:56:01;;;;;;;8.75;3.30;;;14.90;84.30;;;;;;5130871;27;20495;-67
2022/04/24 11:58:35;;;;;;;4.80;2.70;;;15.00;82.80;;;;;;5129688;27;20122;-66
2022/04/24 12:01:04;;;;;;;12.23;2.85;;;15.00;83.30;;;;;;5128986;27;20039;-65
2022/04/24 12:03:32;;;;;;;8.18;2.88;;;15.00;83.50;;;;;;5130908;27;20075;-64
2022/04/24 12:06:02;;;;;;;11.05;2.78;;;15.10;83.90;;;;;;5127666;27;20043;-66
2022/04/24 12:08:41;;;;;;;4.40;2.38;;;15.10;83.80;;;;;;5130777;27;20031;-67
2022/04/24 12:11:07;;;;;;;4.55;2.38;;;15.10;83.90;;;;;;5106971;27;20047;-67
2022/04/24 12:13:33;;;;;;;13.20;2.42;;;15.10;83.80;;;;;;5131399;27;20071;-67
2022/04/24 12:15:59;;;;;;;5.75;3.20;;;15.10;83.60;;;;;;5130483;27;20046;-68
2022/04/24 12:18:25;;;;;;;6.72;2.72;;;15.10;83.40;;;;;;5130907;27;20031;-68
2022/04/24 12:20:52;;;;;;;6.20;2.70;;;15.20;83.80;;;;;;5131138;27;20031;-68
2022/04/24 12:23:19;;;;;;;8.77;3.33;;;15.20;83.60;;;;;;5126185;27;20420;-66
2022/04/24 12:25:56;;;;;;;6.88;3.63;;;15.20;84.00;;;;;;5128944;27;20053;-65
2022/04/24 12:28:41;;;;;;;4.05;2.60;;;15.30;84.00;;;;;;5126692;27;20435;-66
2022/04/24 12:31:18;;;;;;;13.85;3.63;;;15.30;84.20;;;;;;5128659;27;20589;-66
2022/04/24 12:33:49;;;;;;;2.53;1.63;;;15.30;84.20;;;;;;5128282;27;20046;-65
2022/04/24 12:36:15;;;;;;;3.75;1.70;;;15.30;84.00;;;;;;5127647;27;20022;-66
2022/04/24 12:38:55;;;;;;;3.70;2.15;;;15.30;84.00;;;;;;5129427;27;20019;-67
2022/04/24 12:41:25;;;;;;;5.03;2.67;;;15.30;83.80;;;;;;5127915;27;20054;-68
2022/04/24 12:43:52;;;;;;;7.30;2.60;;;15.30;83.30;;;;;;5129950;27;20069;-70
2022/04/24 12:46:18;;;;;;;8.27;2.70;;;15.30;83.20;;;;;;5128714;27;20039;-69
2022/04/24 12:48:49;;;;;;;3.80;1.95;;;15.30;83.10;;;;;;5128916;27;20055;-69
2022/04/24 12:51:15;;;;;;;3.42;2.28;;;15.30;83.20;;;;;;5128966;27;20019;-69
2022/04/24 12:53:42;;;;;;;11.57;2.47;;;15.40;83.20;;;;;;5130994;27;20043;-68